Arden, Delaware
Current Conditions -  °F | °C
As of 9:51 PM on Friday 24 Oct 2014 (Local Time) from KILG Reporting Station
Clear Clear  
Wind Chill: 14°   Ceiling: Unl
Heat Index: 14°   Visibility: 10mi
Dew Point:   Wind: 10mph
Humidity: 49%   Direction: 290°WNW
Pressure: 29.89"   Gusts: NA
Location:  39.81°N, 75.49°W
Report Text: KILG 250151Z 29009KT 10SM CLR 14/03 A2989 RMK AO2 SLP121 T01390033
Loading
Personal Weather Stations






























Interactive Weather Map
Tropical Storm Tracking
New forecast layout! Learn more

10-Day Weather Forecast

Advertisements
Track Severe Weather on mobile